Time;durP1;ratioP1;P1;durP2;ratioP2;P2;SDS_P1;SDS_P2;PMS_P1;PMS_P2;Temp;Humidity;BMP_temperature;BMP_pressure;BME280_temperature;BME280_humidity;BME280_pressure;Samples;Min_cycle;Max_cycle;Signal;HPM_P1;HPM_P2
2023/05/15 00:02:25;;;;;;;8.30;6.70;;;13.00;99.90;;;;;;5032067;28;20223;-62
2023/05/15 00:04:52;;;;;;;7.33;6.60;;;12.90;99.90;;;;;;5028683;28;20257;-63
2023/05/15 00:07:20;;;;;;;7.00;6.40;;;13.00;99.90;;;;;;5045181;28;20184;-62
2023/05/15 00:09:46;;;;;;;7.50;6.27;;;13.10;99.90;;;;;;5029087;28;20302;-61
2023/05/15 00:12:14;;;;;;;6.63;6.03;;;13.20;99.90;;;;;;5045625;28;20192;-62
2023/05/15 00:14:41;;;;;;;9.17;6.30;;;13.20;99.90;;;;;;5026242;28;20275;-61
2023/05/15 00:17:08;;;;;;;7.60;6.50;;;13.20;99.90;;;;;;5048328;28;20514;-63
2023/05/15 00:19:35;;;;;;;8.13;6.27;;;13.20;99.90;;;;;;5046531;28;20192;-63
2023/05/15 00:22:02;;;;;;;7.27;6.57;;;13.20;99.90;;;;;;5029926;28;20219;-63
2023/05/15 00:24:30;;;;;;;7.77;6.60;;;13.10;99.90;;;;;;5029611;28;20241;-62
2023/05/15 00:26:59;;;;;;;7.13;6.43;;;13.00;99.90;;;;;;5026734;28;20196;-62
2023/05/15 00:29:26;;;;;;;7.70;7.00;;;13.00;99.90;;;;;;5045578;28;20291;-65
2023/05/15 00:31:58;;;;;;;7.70;6.90;;;12.90;99.90;;;;;;5044071;28;20278;-62
2023/05/15 00:34:26;;;;;;;7.00;6.27;;;12.80;99.90;;;;;;5014905;28;20204;-67
2023/05/15 00:36:53;;;;;;;7.57;6.80;;;12.90;99.90;;;;;;5044713;28;20207;-62
2023/05/15 00:39:20;;;;;;;7.80;6.50;;;12.90;99.90;;;;;;5026346;28;20215;-63
2023/05/15 00:41:48;;;;;;;7.03;6.33;;;12.90;99.90;;;;;;5029294;28;20244;-62
2023/05/15 00:44:18;;;;;;;7.17;6.30;;;12.90;99.90;;;;;;5018068;28;20323;-62
2023/05/15 00:46:45;;;;;;;7.50;6.67;;;13.00;99.90;;;;;;5046101;28;20227;-64
2023/05/15 00:49:13;;;;;;;7.73;6.93;;;12.70;99.90;;;;;;5021889;28;20222;-68
2023/05/15 00:51:43;;;;;;;8.07;6.77;;;12.40;99.90;;;;;;5026632;28;20286;-63
2023/05/15 00:54:10;;;;;;;8.50;7.07;;;12.10;99.90;;;;;;5032371;28;20202;-61
2023/05/15 00:56:38;;;;;;;8.23;7.43;;;12.30;99.90;;;;;;5029285;28;20210;-62
2023/05/15 00:59:06;;;;;;;8.50;7.70;;;12.30;99.90;;;;;;5026373;28;20324;-61
2023/05/15 01:01:33;;;;;;;8.43;7.57;;;12.30;99.90;;;;;;5028811;28;20291;-61
2023/05/15 01:04:04;;;;;;;8.80;7.90;;;12.10;99.90;;;;;;5061830;23;20234;-63
2023/05/15 01:06:31;;;;;;;9.20;8.30;;;11.90;99.90;;;;;;5067121;28;20218;-63
2023/05/15 01:09:07;;;;;;;9.47;8.50;;;11.80;99.90;;;;;;5058143;28;20238;-62
2023/05/15 01:11:37;;;;;;;9.43;8.63;;;11.50;99.90;;;;;;5062601;28;20554;-63
2023/05/15 01:14:05;;;;;;;9.03;8.13;;;11.70;1.00;;;;;;5043832;28;20195;-62
2023/05/15 01:16:33;;;;;;;11.33;8.50;;;11.90;99.90;;;;;;5042540;28;20195;-64
2023/05/15 01:19:02;;;;;;;13.83;8.63;;;12.00;99.90;;;;;;5046061;28;20199;-64
2023/05/15 01:21:35;;;;;;;8.97;8.17;;;12.00;99.90;;;;;;5058001;28;20242;-63
2023/05/15 01:24:02;;;;;;;9.10;8.20;;;11.90;99.90;;;;;;5047666;28;20261;-62
2023/05/15 01:26:48;;;;;;;9.67;8.67;;;11.90;99.90;;;;;;5046828;28;20228;-63
2023/05/15 01:29:36;;;;;;;8.83;8.03;;;12.00;99.90;;;;;;5058891;28;20192;-63
2023/05/15 01:32:10;;;;;;;8.93;8.03;;;12.10;99.90;;;;;;5046612;28;20195;-64
2023/05/15 01:34:50;;;;;;;8.30;7.50;;;12.10;99.90;;;;;;5058568;28;20703;-63
2023/05/15 01:37:23;;;;;;;9.27;7.50;;;12.10;99.90;;;;;;5061191;28;20196;-63
2023/05/15 01:39:56;;;;;;;8.23;7.20;;;12.20;99.90;;;;;;5039613;28;20229;-65
2023/05/15 01:42:32;;;;;;;10.23;7.73;;;12.10;99.90;;;;;;5056672;28;20236;-63
2023/05/15 01:45:03;;;;;;;9.97;8.53;;;11.90;99.90;;;;;;5046876;28;20730;-63
2023/05/15 01:47:43;;;;;;;9.80;8.30;;;11.90;99.90;;;;;;5047274;28;20191;-67
2023/05/15 01:50:14;;;;;;;8.27;7.47;;;11.90;99.90;;;;;;5072544;28;20206;-67
2023/05/15 01:52:46;;;;;;;7.40;6.70;;;11.90;99.90;;;;;;5045858;28;20200;-68
2023/05/15 01:55:15;;;;;;;8.80;7.60;;;12.10;99.90;;;;;;5062079;28;20214;-68
2023/05/15 01:57:44;;;;;;;9.17;7.83;;;12.20;99.90;;;;;;5079101;28;20187;-68
2023/05/15 02:00:12;;;;;;;8.53;7.63;;;12.30;99.90;;;;;;5035379;28;20254;-67
2023/05/15 02:02:41;;;;;;;8.10;7.33;;;12.20;99.90;;;;;;5058218;28;20198;-68
2023/05/15 02:05:09;;;;;;;8.90;7.97;;;12.10;99.90;;;;;;5071748;28;20222;-67
2023/05/15 02:07:36;;;;;;;10.73;9.63;;;11.80;99.90;;;;;;5062673;28;20293;-66
2023/05/15 02:10:04;;;;;;;10.97;9.87;;;11.50;99.90;;;;;;5058548;28;20191;-67
2023/05/15 02:12:32;;;;;;;9.53;8.63;;;11.60;99.90;;;;;;5091204;28;20198;-67
2023/05/15 02:15:00;;;;;;;18.70;13.93;;;11.60;99.90;;;;;;5080803;28;20199;-66
2023/05/15 02:17:28;;;;;;;11.87;10.20;;;11.60;99.90;;;;;;5071631;28;20198;-66
2023/05/15 02:19:55;;;;;;;9.47;8.57;;;11.70;99.90;;;;;;5066167;28;20194;-67
2023/05/15 02:22:22;;;;;;;12.50;8.30;;;11.80;99.90;;;;;;5080794;28;20214;-66
2023/05/15 02:24:49;;;;;;;9.40;8.50;;;11.50;99.90;;;;;;5091418;28;20254;-67
2023/05/15 02:27:39;;;;;;;11.37;9.97;;;11.40;99.90;;;;;;5052564;28;20981;-64
2023/05/15 02:30:35;;;;;;;16.70;12.57;;;11.40;99.90;;;;;;5072008;28;20192;-62
2023/05/15 02:33:30;;;;;;;19.07;16.23;;;11.50;99.90;;;;;;5054351;28;20205;-62
2023/05/15 02:36:19;;;;;;;10.87;9.77;;;11.50;99.90;;;;;;5073738;28;20244;-64
2023/05/15 02:38:52;;;;;;;10.07;8.83;;;11.00;99.90;;;;;;5073047;28;20233;-64
2023/05/15 02:41:20;;;;;;;11.27;10.17;;;10.90;1.00;;;;;;5068064;28;20250;-64
2023/05/15 02:43:50;;;;;;;9.67;8.67;;;11.10;1.00;;;;;;5059262;28;20278;-63
2023/05/15 02:46:20;;;;;;;16.00;14.40;;;11.10;1.00;;;;;;5073532;28;20201;-66
2023/05/15 02:48:47;;;;;;;9.10;8.20;;;11.30;1.00;;;;;;5074779;28;20285;-64
2023/05/15 02:51:14;;;;;;;9.33;8.37;;;11.20;99.90;;;;;;5049572;28;20218;-64
2023/05/15 02:53:42;;;;;;;10.30;8.47;;;11.30;99.90;;;;;;5047060;28;20218;-64
2023/05/15 02:56:09;;;;;;;10.60;9.00;;;11.40;99.90;;;;;;5075463;28;20660;-65
2023/05/15 02:58:37;;;;;;;9.73;8.13;;;11.40;99.90;;;;;;5081101;28;20732;-66
2023/05/15 03:01:04;;;;;;;8.70;7.83;;;11.40;99.90;;;;;;5078789;28;20199;-62
2023/05/15 03:03:32;;;;;;;9.00;7.43;;;11.20;99.90;;;;;;5058073;28;20230;-65
2023/05/15 03:05:59;;;;;;;9.50;8.37;;;11.20;99.90;;;;;;5064154;28;20199;-61
2023/05/15 03:08:27;;;;;;;10.80;9.17;;;11.10;99.90;;;;;;5081040;28;20284;-63
2023/05/15 03:10:54;;;;;;;10.80;8.97;;;11.10;99.90;;;;;;5078284;28;20765;-63
2023/05/15 03:13:21;;;;;;;10.90;8.57;;;11.10;99.90;;;;;;5066970;28;20392;-66
2023/05/15 03:15:48;;;;;;;10.13;8.60;;;11.10;99.90;;;;;;5052777;28;20234;-63
2023/05/15 03:18:17;;;;;;;9.83;8.33;;;11.00;99.90;;;;;;5061670;28;20329;-63
2023/05/15 03:20:47;;;;;;;10.37;9.10;;;11.00;99.90;;;;;;5072881;28;20187;-63
2023/05/15 03:23:14;;;;;;;11.40;8.73;;;10.90;99.90;;;;;;5084999;28;20186;-63
2023/05/15 03:25:41;;;;;;;9.83;8.83;;;11.00;99.90;;;;;;5059779;28;20193;-63
2023/05/15 03:28:08;;;;;;;10.37;9.27;;;10.90;99.90;;;;;;5064791;28;20656;-62
2023/05/15 03:30:35;;;;;;;10.23;9.17;;;10.80;99.90;;;;;;5059350;28;20278;-63
2023/05/15 03:33:02;;;;;;;9.00;8.20;;;10.90;99.90;;;;;;5056744;28;20588;-64
2023/05/15 03:35:31;;;;;;;10.17;9.10;;;10.90;99.90;;;;;;5081143;28;20195;-62
2023/05/15 03:37:58;;;;;;;9.70;8.13;;;10.90;99.90;;;;;;5083673;28;20241;-63
2023/05/15 03:40:25;;;;;;;10.23;8.27;;;10.90;99.90;;;;;;5061958;28;20285;-63
2023/05/15 03:42:52;;;;;;;9.60;8.07;;;11.00;99.90;;;;;;5064650;28;20215;-63
2023/05/15 03:45:20;;;;;;;12.13;7.80;;;11.00;99.90;;;;;;5056310;28;20195;-62
2023/05/15 03:47:48;;;;;;;9.17;8.27;;;11.00;99.90;;;;;;5069255;28;20186;-62
2023/05/15 03:50:15;;;;;;;9.53;8.63;;;10.80;99.90;;;;;;5073235;28;20201;-63
2023/05/15 03:52:42;;;;;;;13.00;9.30;;;10.80;99.90;;;;;;5067249;28;20615;-64
2023/05/15 03:55:09;;;;;;;11.03;9.80;;;10.80;99.90;;;;;;5083248;28;20197;-63
2023/05/15 03:57:36;;;;;;;11.57;10.07;;;10.80;99.90;;;;;;5081579;28;20650;-63
2023/05/15 04:00:08;;;;;;;13.10;9.97;;;10.70;99.90;;;;;;5072982;28;20198;-63
2023/05/15 04:02:39;;;;;;;9.80;8.93;;;10.70;99.90;;;;;;5083396;28;20218;-63
2023/05/15 04:05:07;;;;;;;11.53;10.07;;;10.90;99.90;;;;;;5062727;28;20230;-66
2023/05/15 04:07:35;;;;;;;12.73;10.20;;;11.00;99.90;;;;;;5075258;28;20202;-63
2023/05/15 04:10:03;;;;;;;11.77;10.43;;;11.20;99.90;;;;;;5070936;28;20679;-67
2023/05/15 04:12:34;;;;;;;10.80;9.80;;;11.30;99.90;;;;;;5081000;28;20668;-63
2023/05/15 04:15:21;;;;;;;10.83;9.70;;;11.50;99.90;;;;;;5055739;28;20195;-63
2023/05/15 04:17:50;;;;;;;12.07;9.77;;;11.60;99.90;;;;;;5078486;28;20253;-64
2023/05/15 04:20:19;;;;;;;11.27;9.30;;;11.90;99.90;;;;;;5077012;28;20658;-66
2023/05/15 04:22:47;;;;;;;10.40;9.40;;;12.00;99.90;;;;;;5084185;28;20315;-63
2023/05/15 04:25:15;;;;;;;10.63;9.60;;;12.20;99.90;;;;;;5070412;28;20218;-65
2023/05/15 04:27:43;;;;;;;10.70;9.67;;;12.60;99.90;;;;;;5075734;28;20241;-65
2023/05/15 04:30:11;;;;;;;10.07;9.10;;;13.00;99.90;;;;;;5077720;28;20278;-63
2023/05/15 04:32:39;;;;;;;9.57;8.67;;;13.60;99.90;;;;;;5073570;28;20224;-64
2023/05/15 04:35:09;;;;;;;11.50;7.77;;;14.10;99.90;;;;;;5058254;28;20759;-63
2023/05/15 04:37:37;;;;;;;11.27;7.20;;;14.50;99.90;;;;;;5086116;28;20186;-63
2023/05/15 04:40:06;;;;;;;14.00;9.53;;;14.90;99.90;;;;;;5086710;28;20193;-65
2023/05/15 04:42:35;;;;;;;10.80;7.63;;;15.30;99.90;;;;;;5069289;28;20574;-64
2023/05/15 04:45:05;;;;;;;10.10;8.37;;;15.70;99.90;;;;;;5087169;28;21141;-64
2023/05/15 04:47:32;;;;;;;10.93;8.85;;;16.10;99.90;;;;;;5063353;28;20715;-66
2023/05/15 04:50:00;;;;;;;9.67;8.77;;;16.20;99.90;;;;;;5073517;28;20198;-64
2023/05/15 04:52:26;;;;;;;10.52;9.40;;;15.10;99.90;;;;;;5069703;28;20660;-67
2023/05/15 04:54:54;;;;;;;12.30;10.27;;;15.10;99.90;;;;;;5054579;28;20206;-64
2023/05/15 04:57:22;;;;;;;10.98;8.65;;;15.30;99.90;;;;;;5050060;28;20283;-65
2023/05/15 04:59:49;;;;;;;11.57;9.07;;;16.20;99.90;;;;;;5077546;28;20198;-65
2023/05/15 05:02:22;;;;;;;10.90;9.73;;;16.90;99.90;;;;;;5078319;28;20223;-63
2023/05/15 05:04:49;;;;;;;12.18;9.52;;;16.50;99.90;;;;;;5054451;28;20250;-64
2023/05/15 05:07:16;;;;;;;13.00;10.73;;;16.80;99.90;;;;;;5075978;28;20200;-65
2023/05/15 05:09:44;;;;;;;14.07;10.30;;;16.00;99.90;;;;;;5061526;28;20222;-72
2023/05/15 05:12:11;;;;;;;11.18;7.25;;;16.40;99.90;;;;;;5084826;28;20226;-66
2023/05/15 05:14:40;;;;;;;12.30;9.98;;;16.70;99.90;;;;;;5091417;28;20244;-64
2023/05/15 05:17:08;;;;;;;12.07;10.82;;;17.20;99.90;;;;;;5078607;28;20190;-64
2023/05/15 05:19:35;;;;;;;10.60;9.68;;;16.90;99.90;;;;;;5068968;28;20247;-67
2023/05/15 05:22:04;;;;;;;10.05;8.98;;;16.80;99.90;;;;;;5084641;28;20628;-63
2023/05/15 05:24:31;;;;;;;11.18;9.82;;;18.20;99.90;;;;;;5089468;28;20828;-66
2023/05/15 05:26:59;;;;;;;16.35;10.27;;;18.90;99.90;;;;;;5093448;28;20199;-65
2023/05/15 05:29:26;;;;;;;9.80;8.95;;;18.50;99.90;;;;;;5057615;28;20189;-66
2023/05/15 05:31:53;;;;;;;10.10;8.77;;;19.90;99.90;;;;;;5078367;28;20231;-63
2023/05/15 05:34:20;;;;;;;9.70;8.80;;;20.00;99.90;;;;;;5084431;28;20190;-67
2023/05/15 05:36:48;;;;;;;9.23;8.30;;;20.50;99.90;;;;;;5058513;28;20203;-66
2023/05/15 05:39:15;;;;;;;9.77;8.77;;;19.80;99.90;;;;;;5079594;28;20726;-65
2023/05/15 05:41:43;;;;;;;8.95;8.05;;;20.30;99.90;;;;;;5082277;28;20685;-65
2023/05/15 05:44:10;;;;;;;10.02;7.68;;;20.00;99.90;;;;;;5083879;28;20201;-65
2023/05/15 05:46:37;;;;;;;8.98;8.00;;;22.10;99.90;;;;;;5080814;28;20260;-66
2023/05/15 05:49:04;;;;;;;11.82;10.73;;;21.70;99.90;;;;;;5068044;28;20715;-64
2023/05/15 05:51:35;;;;;;;11.88;9.43;;;20.00;99.90;;;;;;5079395;28;20194;-65
2023/05/15 05:54:02;;;;;;;15.65;13.05;;;19.40;99.90;;;;;;5077428;28;20191;-65
2023/05/15 05:56:29;;;;;;;14.95;13.35;;;18.60;99.90;;;;;;5047730;28;20198;-64
2023/05/15 05:58:58;;;;;;;15.45;13.90;;;18.40;99.90;;;;;;5082586;28;20190;-65
2023/05/15 06:01:26;;;;;;;16.50;14.52;;;17.70;99.90;;;;;;5086476;28;20264;-64
2023/05/15 06:03:54;;;;;;;22.08;17.77;;;17.10;99.90;;;;;;5085887;28;20320;-64
2023/05/15 06:06:22;;;;;;;23.00;20.50;;;18.10;99.90;;;;;;5081826;28;20529;-64
2023/05/15 06:08:49;;;;;;;20.02;17.95;;;17.10;99.90;;;;;;5070530;28;20661;-65
2023/05/15 06:11:16;;;;;;;14.82;13.38;;;18.50;99.90;;;;;;5074988;28;20580;-63
2023/05/15 06:13:43;;;;;;;21.63;19.33;;;20.20;99.90;;;;;;5075147;28;20183;-65
2023/05/15 06:16:09;;;;;;;19.35;17.33;;;20.20;99.90;;;;;;5064353;28;20738;-64
2023/05/15 06:18:36;;;;;;;21.90;19.63;;;19.80;99.90;;;;;;5090501;28;20745;-64
2023/05/15 06:21:03;;;;;;;28.23;25.27;;;18.90;99.90;;;;;;5089116;28;20195;-64
2023/05/15 06:23:30;;;;;;;26.02;23.35;;;17.20;99.90;;;;;;5079409;28;20218;-65
2023/05/15 06:25:57;;;;;;;31.42;25.63;;;16.20;99.90;;;;;;5054798;28;20564;-64
2023/05/15 06:28:25;;;;;;;25.65;22.92;;;16.20;99.90;;;;;;5077837;28;20274;-63
2023/05/15 06:30:52;;;;;;;25.38;21.55;;;16.10;99.90;;;;;;5079847;28;20202;-64
2023/05/15 06:33:20;;;;;;;31.98;26.25;;;15.70;99.90;;;;;;5083742;28;20252;-64
2023/05/15 06:35:47;;;;;;;26.17;23.35;;;15.70;99.90;;;;;;5089060;28;20766;-65
2023/05/15 06:38:14;;;;;;;22.05;18.40;;;16.40;99.90;;;;;;5060204;28;20207;-64
2023/05/15 06:40:41;;;;;;;25.92;21.13;;;16.90;99.90;;;;;;5078363;28;20204;-65
2023/05/15 06:43:08;;;;;;;27.25;23.27;;;17.40;99.90;;;;;;5086398;28;20209;-65
2023/05/15 06:45:35;;;;;;;23.45;20.95;;;17.50;99.90;;;;;;5073640;28;20239;-64
2023/05/15 06:48:03;;;;;;;20.17;18.05;;;17.80;99.90;;;;;;5074970;28;20636;-65
2023/05/15 06:50:30;;;;;;;28.90;25.52;;;17.90;99.90;;;;;;5079176;28;20305;-66
2023/05/15 06:52:57;;;;;;;25.80;20.73;;;17.70;99.90;;;;;;5067897;28;20285;-64
2023/05/15 06:55:24;;;;;;;28.55;25.60;;;17.80;99.90;;;;;;5088859;28;20278;-64
2023/05/15 06:57:52;;;;;;;31.58;28.25;;;17.70;99.90;;;;;;5061936;28;20222;-64
2023/05/15 07:00:19;;;;;;;31.75;28.05;;;16.50;99.90;;;;;;5068193;28;20194;-65
2023/05/15 07:02:46;;;;;;;27.48;24.08;;;16.40;99.90;;;;;;5080683;28;20297;-64
2023/05/15 07:05:13;;;;;;;33.67;27.63;;;16.60;99.90;;;;;;5084766;28;20250;-65
2023/05/15 07:07:41;;;;;;;35.03;29.23;;;17.00;99.90;;;;;;5080777;28;20198;-64
2023/05/15 07:10:08;;;;;;;35.35;31.55;;;16.90;99.90;;;;;;5081749;28;20562;-64
2023/05/15 07:12:36;;;;;;;39.38;30.73;;;16.90;99.90;;;;;;5056726;28;20895;-64
2023/05/15 07:15:03;;;;;;;36.58;32.17;;;16.80;99.90;;;;;;5082491;28;23354;-64
2023/05/15 07:17:32;;;;;;;37.08;31.98;;;16.70;99.90;;;;;;5080096;28;20587;-65
2023/05/15 07:19:59;;;;;;;37.42;31.60;;;16.90;99.90;;;;;;5057379;28;20213;-64
2023/05/15 07:22:27;;;;;;;35.67;29.00;;;17.00;99.90;;;;;;5092276;28;20210;-64
2023/05/15 07:24:54;;;;;;;32.95;28.15;;;17.20;99.90;;;;;;5070497;28;20270;-65
2023/05/15 07:27:21;;;;;;;31.30;27.92;;;17.60;99.90;;;;;;5053823;28;20286;-66
2023/05/15 07:29:48;;;;;;;34.03;30.38;;;17.90;99.90;;;;;;5073466;28;20181;-66
2023/05/15 07:32:15;;;;;;;34.92;30.85;;;17.80;99.90;;;;;;5084958;28;20189;-65
2023/05/15 07:34:42;;;;;;;38.90;33.92;;;17.90;99.90;;;;;;5082213;28;20195;-64
2023/05/15 07:37:09;;;;;;;24.45;21.90;;;17.70;99.90;;;;;;5058990;28;20339;-64
2023/05/15 07:39:36;;;;;;;26.77;21.98;;;17.60;99.90;;;;;;5064875;28;20218;-64
2023/05/15 07:42:04;;;;;;;30.45;24.65;;;17.90;99.90;;;;;;5084454;28;20765;-64
2023/05/15 07:44:31;;;;;;;30.23;26.73;;;18.40;99.90;;;;;;5060008;28;20190;-67
2023/05/15 07:46:58;;;;;;;30.75;26.77;;;18.80;99.90;;;;;;5056622;28;20344;-65
2023/05/15 07:49:25;;;;;;;40.28;31.58;;;18.40;99.90;;;;;;5059300;28;20186;-65
2023/05/15 07:51:52;;;;;;;30.27;25.70;;;20.40;99.90;;;;;;5087299;28;20274;-65
2023/05/15 07:54:19;;;;;;;27.05;22.80;;;23.30;99.90;;;;;;5078664;28;20262;-65
2023/05/15 07:56:46;;;;;;;27.48;24.55;;;24.40;99.90;;;;;;5072710;28;20668;-66
2023/05/15 07:59:13;;;;;;;31.90;28.50;;;23.80;99.90;;;;;;5079295;28;20182;-65
2023/05/15 08:01:40;;;;;;;30.15;27.00;;;23.10;99.90;;;;;;5064517;28;20209;-64
2023/05/15 08:04:08;;;;;;;34.10;30.63;;;22.20;99.90;;;;;;5060011;28;20268;-64
2023/05/15 08:06:38;;;;;;;28.25;25.25;;;20.20;99.90;;;;;;5039947;28;20195;-64
2023/05/15 08:09:05;;;;;;;31.63;28.38;;;20.00;99.90;;;;;;5056851;28;20194;-64
2023/05/15 08:11:32;;;;;;;29.92;26.88;;;20.40;99.90;;;;;;5077530;28;20228;-64
2023/05/15 08:13:59;;;;;;;33.65;30.27;;;20.90;99.90;;;;;;5064834;28;20294;-65
2023/05/15 08:16:26;;;;;;;30.17;27.10;;;21.10;99.90;;;;;;5080520;28;20206;-65
2023/05/15 08:18:57;;;;;;;28.88;25.77;;;21.90;99.90;;;;;;5075604;28;20285;-64
2023/05/15 08:21:24;;;;;;;33.53;29.17;;;21.40;99.90;;;;;;5071238;28;20675;-64
2023/05/15 08:23:51;;;;;;;31.55;26.77;;;19.70;99.90;;;;;;5065941;28;20302;-64
2023/05/15 08:26:20;;;;;;;35.72;28.98;;;19.70;99.90;;;;;;5061068;28;20277;-66
2023/05/15 08:28:47;;;;;;;35.22;28.15;;;19.90;99.90;;;;;;5075284;28;20191;-63
2023/05/15 08:31:14;;;;;;;34.03;30.20;;;21.50;99.90;;;;;;5087076;28;20181;-64
2023/05/15 08:33:41;;;;;;;41.40;37.15;;;21.70;99.90;;;;;;5078367;28;20210;-64
2023/05/15 08:36:08;;;;;;;36.90;31.23;;;22.70;99.90;;;;;;5083707;28;20190;-65
2023/05/15 08:38:35;;;;;;;35.53;31.13;;;24.30;99.90;;;;;;5058211;28;20192;-65
2023/05/15 08:41:09;;;;;;;52.00;39.75;;;24.50;99.90;;;;;;5063895;28;20697;-64
2023/05/15 08:43:38;;;;;;;150.48;105.00;;;26.70;99.90;;;;;;5085575;28;20297;-64
2023/05/15 08:46:06;;;;;;;59.70;48.42;;;28.30;99.90;;;;;;5072171;28;20278;-64
2023/05/15 08:48:38;;;;;;;163.35;120.38;;;29.40;99.90;;;;;;5072227;28;20182;-64
2023/05/15 08:51:08;;;;;;;87.03;68.32;;;28.90;99.90;;;;;;5074535;28;20194;-63
2023/05/15 08:53:36;;;;;;;85.63;68.55;;;29.30;99.90;;;;;;5052859;28;20187;-63
2023/05/15 08:56:04;;;;;;;49.97;44.72;;;28.60;99.90;;;;;;5074719;28;20624;-64
2023/05/15 08:58:32;;;;;;;45.55;40.72;;;27.80;99.90;;;;;;5076495;28;20659;-65
2023/05/15 09:01:00;;;;;;;46.25;40.55;;;26.10;99.90;;;;;;5079538;28;20209;-64
2023/05/15 09:03:27;;;;;;;40.90;36.65;;;25.60;99.90;;;;;;5057051;28;20225;-63
2023/05/15 09:05:54;;;;;;;43.63;37.92;;;24.90;99.90;;;;;;5069515;28;20651;-64
2023/05/15 09:08:23;;;;;;;41.00;36.60;;;24.00;99.90;;;;;;5080191;28;20190;-63
2023/05/15 09:10:52;;;;;;;38.67;34.55;;;23.50;99.90;;;;;;5058993;28;20898;-66
2023/05/15 09:13:19;;;;;;;39.90;35.63;;;26.10;99.90;;;;;;5072921;28;20232;-66
2023/05/15 09:15:47;;;;;;;39.50;34.42;;;27.60;99.90;;;;;;5063480;28;20225;-64
2023/05/15 09:18:15;;;;;;;39.00;34.85;;;28.20;99.90;;;;;;5056227;28;20233;-63
2023/05/15 09:20:43;;;;;;;38.65;34.60;;;28.20;99.90;;;;;;5073853;28;20186;-64
2023/05/15 09:23:26;;;;;;;38.60;34.63;;;27.10;99.90;;;;;;5075934;28;20191;-65
2023/05/15 09:25:55;;;;;;;35.08;31.40;;;25.00;99.90;;;;;;5068433;28;20711;-63
2023/05/15 09:28:32;;;;;;;32.85;29.73;;;26.00;99.90;;;;;;5055745;28;20247;-67
2023/05/15 09:31:04;;;;;;;33.50;30.17;;;27.20;99.90;;;;;;5080423;28;20647;-65
2023/05/15 09:33:36;;;;;;;31.13;28.02;;;26.90;99.90;;;;;;5069122;28;20206;-66
2023/05/15 09:36:05;;;;;;;32.20;28.75;;;26.10;99.90;;;;;;5084534;28;20752;-64
2023/05/15 09:38:33;;;;;;;31.15;27.73;;;26.40;99.90;;;;;;5083297;28;20294;-64
2023/05/15 09:41:02;;;;;;;29.83;26.67;;;25.40;99.90;;;;;;5084351;28;20667;-65
2023/05/15 09:43:36;;;;;;;30.58;27.48;;;25.10;99.90;;;;;;5076763;28;20206;-64
2023/05/15 09:46:04;;;;;;;29.75;26.60;;;25.70;99.90;;;;;;5062621;28;20283;-64
2023/05/15 09:48:32;;;;;;;28.92;26.02;;;26.90;99.90;;;;;;5078233;28;20275;-65
2023/05/15 09:51:00;;;;;;;29.58;26.67;;;26.90;99.90;;;;;;5087427;28;21158;-63
2023/05/15 09:53:28;;;;;;;29.25;26.13;;;27.10;99.90;;;;;;5062437;28;20277;-64
2023/05/15 09:55:55;;;;;;;30.38;27.27;;;27.20;99.90;;;;;;5064437;28;20741;-65
2023/05/15 09:58:22;;;;;;;31.48;28.33;;;27.10;99.90;;;;;;5066952;28;20245;-65
2023/05/15 10:00:49;;;;;;;30.20;27.20;;;27.10;99.90;;;;;;5085278;28;20202;-65
2023/05/15 10:03:21;;;;;;;30.95;27.80;;;25.40;99.90;;;;;;5070878;28;20230;-63
2023/05/15 10:05:48;;;;;;;31.52;27.25;;;25.20;99.90;;;;;;5084160;28;20198;-65
2023/05/15 10:08:26;;;;;;;29.95;26.95;;;27.00;99.90;;;;;;5080339;28;20899;-64
2023/05/15 10:10:54;;;;;;;29.73;26.67;;;27.70;99.90;;;;;;5080064;28;20664;-65
2023/05/15 10:13:22;;;;;;;29.88;26.77;;;27.30;99.90;;;;;;5085042;28;20860;-65
2023/05/15 10:15:50;;;;;;;30.13;26.63;;;26.60;99.90;;;;;;5070853;28;20206;-65
2023/05/15 10:18:20;;;;;;;26.60;24.02;;;28.10;99.90;;;;;;5068528;28;20204;-63
2023/05/15 10:20:48;;;;;;;29.42;25.92;;;29.30;99.90;;;;;;5072448;28;20691;-63
2023/05/15 10:23:17;;;;;;;28.20;25.27;;;29.80;99.90;;;;;;5080789;28;20730;-65
2023/05/15 10:25:54;;;;;;;28.30;25.42;;;29.70;99.90;;;;;;5067012;28;20750;-64
2023/05/15 10:28:21;;;;;;;29.58;26.45;;;29.70;99.90;;;;;;5061569;28;20229;-65
2023/05/15 10:30:49;;;;;;;27.88;25.17;;;30.30;99.90;;;;;;5057204;28;20569;-67
2023/05/15 10:33:19;;;;;;;27.33;24.70;;;29.50;99.90;;;;;;5062200;28;20357;-62
2023/05/15 10:35:47;;;;;;;26.60;24.00;;;28.90;99.90;;;;;;5083969;28;20667;-66
2023/05/15 10:38:16;;;;;;;29.17;26.38;;;29.70;99.90;;;;;;5060664;28;20198;-66
2023/05/15 10:40:44;;;;;;;27.23;24.58;;;29.70;99.90;;;;;;5061787;28;20213;-63
2023/05/15 10:43:13;;;;;;;24.45;22.25;;;29.00;99.90;;;;;;5052626;28;20209;-65
2023/05/15 10:45:41;;;;;;;24.17;21.75;;;29.90;99.90;;;;;;5061376;28;20197;-65
2023/05/15 10:48:11;;;;;;;27.35;24.65;;;29.80;99.90;;;;;;5094338;28;20284;-66
2023/05/15 10:50:38;;;;;;;27.15;24.33;;;30.20;99.90;;;;;;5082510;28;20199;-68
2023/05/15 10:53:05;;;;;;;26.02;23.45;;;29.10;99.90;;;;;;5065541;28;20237;-65
2023/05/15 10:55:32;;;;;;;25.17;22.58;;;27.60;99.90;;;;;;5080285;28;20223;-65
2023/05/15 10:57:59;;;;;;;25.83;23.23;;;27.60;99.90;;;;;;5058303;28;20230;-65
2023/05/15 11:00:32;;;;;;;24.55;22.08;;;27.30;99.90;;;;;;5070471;28;20199;-65
2023/05/15 11:02:59;;;;;;;23.55;21.13;;;27.40;99.90;;;;;;5083629;28;20218;-69
2023/05/15 11:05:27;;;;;;;25.30;22.70;;;28.30;99.90;;;;;;5062063;28;20252;-69
2023/05/15 11:08:20;;;;;;;20.58;18.38;;;29.60;99.90;;;;;;5069621;28;20660;-68
2023/05/15 11:10:47;;;;;;;23.75;21.25;;;30.20;99.90;;;;;;5084360;28;20183;-68
2023/05/15 11:13:14;;;;;;;25.15;22.70;;;30.00;99.90;;;;;;5085681;28;20221;-70
2023/05/15 11:15:43;;;;;;;19.38;17.58;;;28.20;99.90;;;;;;5058405;28;20225;-69
2023/05/15 11:18:10;;;;;;;21.13;19.02;;;28.50;99.90;;;;;;5056086;28;20202;-69
2023/05/15 11:20:51;;;;;;;22.73;20.27;;;28.80;99.90;;;;;;5063887;28;20604;-68
2023/05/15 11:23:22;;;;;;;21.00;18.83;;;29.20;99.90;;;;;;5058785;28;20867;-70
2023/05/15 11:25:56;;;;;;;20.70;18.73;;;28.00;99.90;;;;;;5088325;28;20209;-70
2023/05/15 11:28:24;;;;;;;22.15;20.00;;;27.20;99.90;;;;;;5082715;28;20725;-69
2023/05/15 11:30:57;;;;;;;21.45;19.00;;;26.70;99.90;;;;;;5066298;28;20345;-70
2023/05/15 11:33:30;;;;;;;20.60;18.58;;;27.00;99.90;;;;;;5057648;28;20199;-68
2023/05/15 11:35:58;;;;;;;21.02;18.92;;;27.40;99.90;;;;;;5061407;28;20198;-68
2023/05/15 11:38:25;;;;;;;20.55;18.45;;;27.30;99.90;;;;;;5057878;28;20202;-68
2023/05/15 11:41:01;;;;;;;20.88;18.77;;;27.00;99.90;;;;;;5076578;28;20660;-69
2023/05/15 11:43:34;;;;;;;21.05;19.05;;;26.60;99.90;;;;;;5076314;28;20238;-69
2023/05/15 11:46:12;;;;;;;19.95;17.33;;;26.70;99.90;;;;;;5075677;28;20198;-69
2023/05/15 11:48:41;;;;;;;21.10;18.55;;;27.10;99.90;;;;;;5082576;28;20651;-70
2023/05/15 11:51:20;;;;;;;20.70;18.73;;;27.10;99.90;;;;;;5082756;28;20235;-69
2023/05/15 11:53:52;;;;;;;20.05;18.15;;;26.90;99.90;;;;;;5071128;28;20240;-68
2023/05/15 11:56:29;;;;;;;17.25;15.55;;;26.70;99.90;;;;;;5065188;28;20292;-70
2023/05/15 11:58:58;;;;;;;17.27;15.57;;;26.20;99.90;;;;;;5082880;28;20800;-69
2023/05/15 12:01:25;;;;;;;17.08;15.35;;;25.90;99.90;;;;;;5072560;28;20198;-68
2023/05/15 12:03:53;;;;;;;17.98;16.20;;;25.90;99.90;;;;;;5062884;28;20280;-69
2023/05/15 12:06:21;;;;;;;18.63;16.83;;;25.60;99.90;;;;;;5056452;28;20890;-69
2023/05/15 12:08:52;;;;;;;20.10;18.10;;;25.50;99.90;;;;;;5078781;28;20202;-71
2023/05/15 12:11:23;;;;;;;21.00;18.67;;;25.20;99.90;;;;;;5078319;28;20233;-69
2023/05/15 12:13:52;;;;;;;19.63;17.63;;;25.20;99.90;;;;;;5073704;28;20198;-68
2023/05/15 12:16:25;;;;;;;20.55;18.00;;;25.10;99.90;;;;;;5070786;28;20229;-68
2023/05/15 12:18:52;;;;;;;20.35;18.13;;;25.20;99.90;;;;;;5073322;28;20190;-67
2023/05/15 12:21:19;;;;;;;20.60;18.60;;;24.70;99.90;;;;;;5074153;28;20191;-68
2023/05/15 12:23:54;;;;;;;22.67;20.35;;;24.70;99.90;;;;;;5076056;28;20252;-68
2023/05/15 12:26:34;;;;;;;21.33;19.30;;;24.50;99.90;;;;;;5064915;28;20210;-68
2023/05/15 12:29:03;;;;;;;22.15;19.88;;;24.20;99.90;;;;;;5047048;28;20187;-68
2023/05/15 12:31:32;;;;;;;22.77;20.05;;;23.90;99.90;;;;;;5074025;28;20579;-67
2023/05/15 12:33:59;;;;;;;20.65;18.45;;;24.20;99.90;;;;;;5069273;28;20229;-67
2023/05/15 12:36:30;;;;;;;19.33;17.42;;;24.10;99.90;;;;;;5069010;28;20198;-67
2023/05/15 12:38:57;;;;;;;21.00;17.48;;;23.90;99.90;;;;;;5079441;28;20198;-68
2023/05/15 12:41:28;;;;;;;19.65;17.45;;;23.40;99.90;;;;;;5059302;28;20694;-68
2023/05/15 12:43:55;;;;;;;24.17;17.63;;;23.20;99.90;;;;;;5059936;28;20226;-69